createdAt,value
2023-02-07T00:01:28.966Z,-8.22
2023-02-07T00:03:56.664Z,-8.40
2023-02-07T00:06:29.275Z,-8.42
2023-02-07T00:08:56.170Z,-8.44
2023-02-07T00:11:24.144Z,-8.47
2023-02-07T00:13:54.039Z,-8.49
2023-02-07T00:16:21.740Z,-8.50
2023-02-07T00:18:49.016Z,-8.58
2023-02-07T00:21:18.221Z,-8.72
2023-02-07T00:23:45.864Z,-8.70
2023-02-07T00:26:14.320Z,-8.72
2023-02-07T00:28:40.875Z,-8.72
2023-02-07T00:31:13.551Z,-8.74
2023-02-07T00:33:41.642Z,-8.74
2023-02-07T00:36:11.096Z,-8.73
2023-02-07T00:38:38.010Z,-8.58
2023-02-07T00:41:05.172Z,-8.62
2023-02-07T00:43:32.425Z,-8.42
2023-02-07T00:46:00.778Z,-8.56
2023-02-07T00:48:28.223Z,-8.46
2023-02-07T00:50:55.110Z,-8.53
2023-02-07T00:53:22.326Z,-8.57
2023-02-07T00:55:48.832Z,-8.49
2023-02-07T00:58:15.375Z,-8.56
2023-02-07T01:00:41.983Z,-8.54
2023-02-07T01:03:08.638Z,-8.55
2023-02-07T01:05:35.844Z,-8.47
2023-02-07T01:08:02.906Z,-8.48
2023-02-07T01:10:29.528Z,-8.33
2023-02-07T01:12:56.037Z,-8.33
2023-02-07T01:15:22.944Z,-8.28
2023-02-07T01:17:49.761Z,-8.30
2023-02-07T01:20:16.816Z,-8.40
2023-02-07T01:22:43.327Z,-8.32
2023-02-07T01:25:10.597Z,-8.35
2023-02-07T01:27:37.544Z,-8.40
2023-02-07T01:30:05.343Z,-8.45
2023-02-07T01:32:33.393Z,-8.45
2023-02-07T01:34:59.894Z,-8.40
2023-02-07T01:37:27.314Z,-8.26
2023-02-07T01:39:55.061Z,-8.36
2023-02-07T01:42:24.069Z,-8.33
2023-02-07T01:44:50.509Z,-8.48
2023-02-07T01:47:20.689Z,-8.38
2023-02-07T01:49:49.120Z,-8.39
2023-02-07T01:52:19.914Z,-8.57
2023-02-07T01:54:51.271Z,-8.63
2023-02-07T01:57:21.193Z,-8.70
2023-02-07T01:59:50.400Z,-8.78
2023-02-07T02:02:20.761Z,-8.87
2023-02-07T02:04:47.661Z,-8.93
2023-02-07T02:07:15.603Z,-8.98
2023-02-07T02:09:42.101Z,-8.98
2023-02-07T02:12:17.215Z,-8.80
2023-02-07T02:15:02.557Z,-8.85
2023-02-07T02:17:41.039Z,-9.04
2023-02-07T02:20:45.114Z,-9.19
2023-02-07T02:23:41.604Z,-9.03
2023-02-07T02:26:13.969Z,-8.94
2023-02-07T02:28:46.300Z,-8.97
2023-02-07T02:31:25.002Z,-9.07
2023-02-07T02:34:06.415Z,-9.16
2023-02-07T02:36:48.181Z,-9.11
2023-02-07T02:39:26.708Z,-9.18
2023-02-07T02:42:24.024Z,-9.27
2023-02-07T02:44:55.949Z,-9.27
2023-02-07T02:47:23.085Z,-9.31
2023-02-07T02:49:50.411Z,-9.32
2023-02-07T02:52:16.915Z,-9.35
2023-02-07T02:54:43.745Z,-9.37
2023-02-07T02:57:38.133Z,-9.54
2023-02-07T03:00:26.972Z,-9.49
2023-02-07T03:03:03.356Z,-9.47
2023-02-07T03:05:48.699Z,-9.51
2023-02-07T03:08:49.211Z,-9.56
2023-02-07T03:11:18.875Z,-9.60
2023-02-07T03:13:53.033Z,-9.57
2023-02-07T03:16:39.728Z,-9.49
2023-02-07T03:19:09.234Z,-9.53
2023-02-07T03:21:52.059Z,-9.52
2023-02-07T03:24:24.474Z,-9.56
2023-02-07T03:26:54.621Z,-9.68
2023-02-07T03:29:22.778Z,-9.75
2023-02-07T03:31:53.124Z,-9.72
2023-02-07T03:34:23.668Z,-9.70
2023-02-07T03:36:55.913Z,-9.74
2023-02-07T03:39:22.789Z,-9.80
2023-02-07T03:41:55.064Z,-9.84
2023-02-07T03:44:24.951Z,-9.90
2023-02-07T03:46:52.340Z,-9.94
2023-02-07T03:49:18.943Z,-9.91
2023-02-07T03:51:45.922Z,-9.91
2023-02-07T03:54:12.607Z,-9.90
2023-02-07T03:56:39.190Z,-10.00
2023-02-07T03:59:06.029Z,-9.99
2023-02-07T04:01:33.045Z,-9.96
2023-02-07T04:03:59.568Z,-9.95
2023-02-07T04:06:26.055Z,-9.89
2023-02-07T04:08:52.568Z,-9.91
2023-02-07T04:11:19.055Z,-9.94
2023-02-07T04:13:45.518Z,-9.93
2023-02-07T04:16:12.080Z,-9.94
2023-02-07T04:18:38.689Z,-9.85
2023-02-07T04:21:07.650Z,-9.85
2023-02-07T04:23:34.926Z,-9.86
2023-02-07T04:26:01.721Z,-9.83
2023-02-07T04:28:28.659Z,-9.91
2023-02-07T04:30:56.423Z,-9.90
2023-02-07T04:33:23.071Z,-9.91
2023-02-07T04:36:01.195Z,-9.86
2023-02-07T04:38:28.314Z,-9.84
2023-02-07T04:41:04.308Z,-9.82
2023-02-07T04:43:31.290Z,-9.87
2023-02-07T04:45:57.905Z,-9.71
2023-02-07T04:48:27.347Z,-9.67
2023-02-07T04:50:54.367Z,-9.67
2023-02-07T04:53:21.035Z,-9.68
2023-02-07T04:55:52.467Z,-9.54
2023-02-07T04:58:20.298Z,-9.51
2023-02-07T05:00:46.934Z,-9.56
2023-02-07T05:03:14.288Z,-9.62
2023-02-07T05:05:43.109Z,-9.59
2023-02-07T05:08:10.077Z,-9.54
2023-02-07T05:10:37.924Z,-9.39
2023-02-07T05:13:05.054Z,-9.42
2023-02-07T05:15:31.919Z,-9.28
2023-02-07T05:17:58.501Z,-9.21
2023-02-07T05:20:25.897Z,-9.18
2023-02-07T05:22:52.500Z,-9.19
2023-02-07T05:25:19.039Z,-9.17
2023-02-07T05:27:45.716Z,-9.19
2023-02-07T05:30:12.868Z,-9.17
2023-02-07T05:32:58.183Z,-9.05
2023-02-07T05:35:24.687Z,-9.09
2023-02-07T05:37:51.180Z,-9.18
2023-02-07T05:40:17.690Z,-9.31
2023-02-07T05:42:44.290Z,-9.37
2023-02-07T05:45:11.083Z,-9.41
2023-02-07T05:47:37.608Z,-9.50
2023-02-07T05:50:04.446Z,-9.51
2023-02-07T05:52:30.916Z,-9.59
2023-02-07T05:54:57.392Z,-9.66
2023-02-07T05:57:24.205Z,-9.50
2023-02-07T05:59:50.794Z,-9.50
2023-02-07T06:02:17.307Z,-9.51
2023-02-07T06:04:43.864Z,-9.56
2023-02-07T06:07:10.405Z,-9.56
2023-02-07T06:09:36.927Z,-9.56
2023-02-07T06:12:05.228Z,-9.61
2023-02-07T06:14:31.904Z,-9.70
2023-02-07T06:16:58.545Z,-9.71
2023-02-07T06:19:25.130Z,-9.63
2023-02-07T06:21:51.613Z,-9.60
2023-02-07T06:24:18.378Z,-9.59
2023-02-07T06:26:46.921Z,-9.65
2023-02-07T06:29:13.948Z,-9.57
2023-02-07T06:31:40.526Z,-9.46
2023-02-07T06:34:07.317Z,-9.38
2023-02-07T06:36:33.873Z,-9.29
2023-02-07T06:39:00.320Z,-9.20
2023-02-07T06:41:26.900Z,-9.05
2023-02-07T06:43:53.425Z,-8.92
2023-02-07T06:46:19.999Z,-8.81
2023-02-07T06:48:46.503Z,-8.78
2023-02-07T06:51:13.068Z,-8.68
2023-02-07T06:53:39.566Z,-8.55
2023-02-07T06:56:06.256Z,-8.56
2023-02-07T06:58:32.820Z,-8.41
2023-02-07T07:01:01.655Z,-8.21
2023-02-07T07:03:29.493Z,-8.11
2023-02-07T07:05:57.473Z,-8.07
2023-02-07T07:08:25.242Z,-7.90
2023-02-07T07:10:51.785Z,-7.76
2023-02-07T07:13:18.382Z,-7.68
2023-02-07T07:15:45.243Z,-7.77
2023-02-07T07:18:11.793Z,-7.57
2023-02-07T07:20:38.318Z,-7.41
2023-02-07T07:23:04.870Z,-7.15
2023-02-07T07:25:31.514Z,-6.76
2023-02-07T07:27:59.064Z,-6.28
2023-02-07T07:30:25.712Z,-5.59
2023-02-07T07:32:52.192Z,-4.12
2023-02-07T07:35:19.611Z,-2.17
2023-02-07T07:37:46.235Z,-0.40
2023-02-07T07:40:12.819Z,0.84
2023-02-07T07:42:39.500Z,1.43
2023-02-07T07:45:07.048Z,1.63
2023-02-07T07:47:33.622Z,1.87
2023-02-07T07:50:00.195Z,2.74
2023-02-07T07:52:26.898Z,3.57
2023-02-07T07:54:53.800Z,4.88
2023-02-07T07:57:21.312Z,5.51
2023-02-07T07:59:48.008Z,7.08
2023-02-07T08:02:14.653Z,7.40
2023-02-07T08:04:41.197Z,6.81
2023-02-07T08:07:07.701Z,6.92
2023-02-07T08:09:34.178Z,7.32
2023-02-07T08:12:00.699Z,7.95
2023-02-07T08:14:27.203Z,7.91
2023-02-07T08:16:53.690Z,8.36
2023-02-07T08:19:20.246Z,7.33
2023-02-07T08:21:46.835Z,6.58
2023-02-07T08:24:13.317Z,5.91
2023-02-07T08:26:39.832Z,5.30
2023-02-07T08:29:06.411Z,4.88
2023-02-07T08:31:33.103Z,4.58
2023-02-07T08:33:59.654Z,4.91
2023-02-07T08:36:26.301Z,5.02
2023-02-07T08:38:52.858Z,5.10
2023-02-07T08:41:19.366Z,5.49
2023-02-07T08:43:45.862Z,6.22
2023-02-07T08:46:12.483Z,7.39
2023-02-07T08:48:39.010Z,8.97
2023-02-07T08:51:06.992Z,10.66
2023-02-07T08:53:34.191Z,10.77
2023-02-07T08:56:00.846Z,11.63
2023-02-07T08:58:28.208Z,12.13
2023-02-07T09:00:54.979Z,13.07
2023-02-07T09:03:21.969Z,13.71
2023-02-07T09:05:48.584Z,13.78
2023-02-07T09:08:15.113Z,13.27
2023-02-07T09:10:42.037Z,12.95
2023-02-07T09:13:08.812Z,11.30
2023-02-07T09:15:35.358Z,11.14
2023-02-07T09:18:01.867Z,11.40
2023-02-07T09:20:28.422Z,10.56
2023-02-07T09:23:13.416Z,10.79
2023-02-07T09:25:41.881Z,11.41
2023-02-07T09:28:08.843Z,11.82
2023-02-07T09:30:35.700Z,11.30
2023-02-07T09:33:02.594Z,12.24
2023-02-07T09:35:29.181Z,12.91
2023-02-07T09:37:56.180Z,13.45
2023-02-07T09:40:22.923Z,14.03
2023-02-07T09:42:58.475Z,14.91
2023-02-07T09:45:29.271Z,14.23
2023-02-07T09:48:06.705Z,13.80
2023-02-07T09:50:43.667Z,14.53
2023-02-07T09:53:19.692Z,14.71
2023-02-07T09:55:50.395Z,14.42
2023-02-07T09:58:23.157Z,13.40
2023-02-07T10:01:01.210Z,15.02
2023-02-07T10:03:29.555Z,14.90
2023-02-07T10:06:12.847Z,14.93
2023-02-07T10:08:47.319Z,14.15
2023-02-07T10:11:19.900Z,13.48
2023-02-07T10:13:49.420Z,13.82
2023-02-07T10:16:34.419Z,13.07
2023-02-07T10:19:21.354Z,13.34
2023-02-07T10:22:24.216Z,14.72
2023-02-07T10:24:59.687Z,15.31
2023-02-07T10:27:31.035Z,14.11
2023-02-07T10:30:16.478Z,14.12
2023-02-07T10:32:45.261Z,12.99
2023-02-07T10:35:19.887Z,10.04
2023-02-07T10:37:49.355Z,8.83
2023-02-07T10:40:22.948Z,8.12
2023-02-07T10:42:57.217Z,8.89
2023-02-07T10:45:24.047Z,10.63
2023-02-07T10:47:50.684Z,10.70
2023-02-07T10:50:29.415Z,9.40
2023-02-07T10:52:58.970Z,11.00
2023-02-07T10:55:43.145Z,12.41
2023-02-07T10:58:23.250Z,13.37
2023-02-07T11:00:52.666Z,12.83
2023-02-07T11:03:22.042Z,13.19
2023-02-07T11:06:02.773Z,12.68
2023-02-07T11:08:34.404Z,11.03
2023-02-07T11:11:25.932Z,10.73
2023-02-07T11:13:55.130Z,9.00
2023-02-07T11:16:24.504Z,7.67
2023-02-07T11:18:58.187Z,7.35
2023-02-07T11:21:38.433Z,6.58
2023-02-07T11:24:08.078Z,5.32
2023-02-07T11:26:40.794Z,4.12
2023-02-07T11:29:19.869Z,3.59
2023-02-07T11:31:48.409Z,3.79
2023-02-07T11:34:42.632Z,4.77
2023-02-07T11:37:30.606Z,5.49
2023-02-07T11:40:21.294Z,4.22
2023-02-07T11:42:49.929Z,3.32
2023-02-07T11:45:21.624Z,2.37
2023-02-07T11:47:51.223Z,2.04
2023-02-07T11:50:24.202Z,2.50
2023-02-07T11:52:57.226Z,2.17
2023-02-07T11:55:44.335Z,2.00
2023-02-07T11:58:20.973Z,2.21
2023-02-07T12:00:47.829Z,1.99
2023-02-07T12:03:26.358Z,0.41
2023-02-07T12:05:57.424Z,0.78
2023-02-07T12:08:28.186Z,0.31
2023-02-07T12:10:59.734Z,-0.23
2023-02-07T12:13:35.586Z,-0.17
2023-02-07T12:16:07.455Z,-0.92
2023-02-07T12:19:00.854Z,-0.56
2023-02-07T12:21:41.369Z,-0.82
2023-02-07T12:24:16.987Z,-0.77
2023-02-07T12:26:52.688Z,-0.61
2023-02-07T12:29:33.510Z,-0.75
2023-02-07T12:32:05.575Z,-0.47
2023-02-07T12:34:45.925Z,0.01
2023-02-07T12:37:26.293Z,-0.14
2023-02-07T12:40:08.783Z,-0.45
2023-02-07T12:42:45.373Z,-0.65
2023-02-07T12:45:32.534Z,-0.65
2023-02-07T12:48:10.124Z,-0.65
2023-02-07T12:50:59.548Z,-0.44
2023-02-07T12:53:28.708Z,-0.51
2023-02-07T12:56:02.579Z,-0.48
2023-02-07T12:58:52.156Z,-0.56
2023-02-07T13:01:36.097Z,-0.57
2023-02-07T13:04:08.763Z,-0.58
2023-02-07T13:07:12.888Z,-0.32
2023-02-07T13:09:47.490Z,-0.21
2023-02-07T13:12:18.877Z,-0.19
2023-02-07T13:15:14.674Z,0.07
2023-02-07T13:18:06.388Z,-0.01
2023-02-07T13:20:51.048Z,-0.02
2023-02-07T13:23:21.142Z,0.48
2023-02-07T13:25:53.367Z,0.81
2023-02-07T13:28:26.677Z,0.88
2023-02-07T13:30:54.502Z,1.07
2023-02-07T13:33:32.956Z,0.88
2023-02-07T13:36:11.506Z,0.65
2023-02-07T13:38:52.098Z,0.17
2023-02-07T13:41:30.829Z,0.11
2023-02-07T13:44:16.212Z,-0.23
2023-02-07T13:46:54.397Z,-0.37
2023-02-07T13:49:46.662Z,-0.23
2023-02-07T13:52:22.286Z,-0.19
2023-02-07T13:55:06.939Z,-0.46
2023-02-07T13:57:52.344Z,-0.67
2023-02-07T14:00:25.424Z,-0.64
2023-02-07T14:03:01.662Z,-0.74
2023-02-07T14:05:29.754Z,-0.63
2023-02-07T14:08:03.092Z,-0.67
2023-02-07T14:11:11.507Z,-0.60
2023-02-07T14:13:38.070Z,-0.83
2023-02-07T14:16:42.884Z,-1.02
2023-02-07T14:19:13.194Z,-1.12
2023-02-07T14:21:42.081Z,-0.93
2023-02-07T14:24:08.992Z,-0.95
2023-02-07T14:26:38.248Z,-1.06
2023-02-07T14:29:23.117Z,-1.00
2023-02-07T14:32:02.002Z,-0.99
2023-02-07T14:34:30.403Z,-1.07
2023-02-07T14:36:57.226Z,-1.18
2023-02-07T14:39:29.880Z,-1.22
2023-02-07T14:42:10.267Z,-1.26
2023-02-07T14:44:39.704Z,-1.23
2023-02-07T14:47:09.640Z,-1.20
2023-02-07T14:49:48.011Z,-1.25
2023-02-07T14:52:29.134Z,-1.49
2023-02-07T14:55:13.358Z,-1.38
2023-02-07T14:57:51.752Z,-1.25
2023-02-07T15:00:23.979Z,-1.29
2023-02-07T15:02:58.694Z,-1.22
2023-02-07T15:05:37.223Z,-1.24
2023-02-07T15:08:03.687Z,-1.40
2023-02-07T15:10:40.189Z,-1.46
2023-02-07T15:13:19.033Z,-1.58
2023-02-07T15:15:58.210Z,-1.62
2023-02-07T15:18:30.471Z,-1.84
2023-02-07T15:20:58.857Z,-1.76
2023-02-07T15:23:28.548Z,-1.78
2023-02-07T15:25:55.444Z,-1.70
2023-02-07T15:28:29.236Z,-1.78
2023-02-07T15:30:58.660Z,-1.77
2023-02-07T15:33:27.763Z,-1.64
2023-02-07T15:35:54.247Z,-1.60
2023-02-07T15:38:23.927Z,-1.81
2023-02-07T15:40:52.190Z,-1.84
2023-02-07T15:43:35.210Z,-1.75
2023-02-07T15:46:11.397Z,-1.83
2023-02-07T15:48:48.603Z,-1.73
2023-02-07T15:51:16.106Z,-1.88
2023-02-07T15:53:43.303Z,-1.88
2023-02-07T15:56:09.926Z,-1.84
2023-02-07T15:58:38.338Z,-1.88
2023-02-07T16:01:16.407Z,-1.72
2023-02-07T16:03:46.060Z,-1.82
2023-02-07T16:06:22.900Z,-2.12
2023-02-07T16:08:52.180Z,-1.99
2023-02-07T16:11:27.709Z,-2.07
2023-02-07T16:13:54.261Z,-1.83
2023-02-07T16:16:41.990Z,-1.87
2023-02-07T16:19:14.489Z,-1.76
2023-02-07T16:21:43.646Z,-1.90
2023-02-07T16:24:16.470Z,-1.90
2023-02-07T16:26:44.318Z,-2.01
2023-02-07T16:29:23.136Z,-2.01
2023-02-07T16:31:50.201Z,-2.04
2023-02-07T16:34:18.917Z,-1.99
2023-02-07T16:36:50.727Z,-2.14
2023-02-07T16:39:17.285Z,-2.10
2023-02-07T16:41:47.552Z,-2.18
2023-02-07T16:44:20.401Z,-2.14
2023-02-07T16:46:47.818Z,-2.18
2023-02-07T16:49:16.381Z,-2.22
2023-02-07T16:51:44.138Z,-2.12
2023-02-07T16:54:10.800Z,-2.11
2023-02-07T16:56:38.548Z,-2.11
2023-02-07T16:59:05.750Z,-2.22
2023-02-07T17:01:33.587Z,-2.11
2023-02-07T17:04:00.416Z,-2.21
2023-02-07T17:06:27.636Z,-2.25
2023-02-07T17:08:54.403Z,-2.29
2023-02-07T17:11:27.361Z,-2.32
2023-02-07T17:13:58.085Z,-2.24
2023-02-07T17:18:59.727Z,-2.19
2023-02-07T17:21:26.259Z,-2.02
2023-02-07T17:23:52.950Z,-2.05
2023-02-07T17:26:28.638Z,-2.15
2023-02-07T17:28:55.969Z,-2.12
2023-02-07T17:31:22.694Z,-2.19
2023-02-07T17:33:49.622Z,-2.21
2023-02-07T17:36:16.224Z,-2.12
2023-02-07T17:38:43.039Z,-2.15
2023-02-07T17:41:14.250Z,-2.18
2023-02-07T17:43:41.647Z,-2.16
2023-02-07T17:46:20.411Z,-2.22
2023-02-07T17:48:49.117Z,-2.13
2023-02-07T17:51:16.437Z,-2.15
2023-02-07T17:53:43.199Z,-2.30
2023-02-07T17:56:19.311Z,-2.35
2023-02-07T17:58:45.798Z,-2.42
2023-02-07T18:01:12.652Z,-2.28
2023-02-07T18:03:39.399Z,-2.26
2023-02-07T18:06:06.461Z,-2.32
2023-02-07T18:08:33.026Z,-2.33
2023-02-07T18:11:02.272Z,-2.17
2023-02-07T18:13:28.776Z,-2.21
2023-02-07T18:15:55.533Z,-2.32
2023-02-07T18:18:22.189Z,-2.17
2023-02-07T18:20:48.871Z,-2.19
2023-02-07T18:23:15.837Z,-2.29
2023-02-07T18:25:47.529Z,-2.32
2023-02-07T18:28:14.798Z,-2.35
2023-02-07T18:30:42.201Z,-2.32
2023-02-07T18:33:12.277Z,-2.30
2023-02-07T18:35:39.930Z,-2.37
2023-02-07T18:38:06.674Z,-2.30
2023-02-07T18:40:33.459Z,-2.35
2023-02-07T18:43:00.445Z,-2.35
2023-02-07T18:45:27.173Z,-2.51
2023-02-07T18:47:53.698Z,-2.43
2023-02-07T18:50:20.586Z,-2.41
2023-02-07T18:52:48.317Z,-2.38
2023-02-07T18:55:15.198Z,-2.35
2023-02-07T18:57:41.920Z,-2.44
2023-02-07T19:00:09.800Z,-2.35
2023-02-07T19:02:36.936Z,-2.39
2023-02-07T19:05:03.748Z,-2.42
2023-02-07T19:07:30.364Z,-2.36
2023-02-07T19:09:57.113Z,-2.33
2023-02-07T19:12:23.671Z,-2.37
2023-02-07T19:14:50.276Z,-2.29
2023-02-07T19:17:16.878Z,-2.33
2023-02-07T19:19:43.659Z,-2.28
2023-02-07T19:22:10.493Z,-2.41
2023-02-07T19:24:37.216Z,-2.50
2023-02-07T19:27:05.254Z,-2.53
2023-02-07T19:29:33.323Z,-2.41
2023-02-07T19:32:04.005Z,-2.43
2023-02-07T19:34:31.403Z,-2.41
2023-02-07T19:36:58.316Z,-2.44
2023-02-07T19:39:25.503Z,-2.51
2023-02-07T19:41:52.404Z,-2.52
2023-02-07T19:44:19.112Z,-2.56
2023-02-07T19:46:45.866Z,-2.65
2023-02-07T19:49:15.006Z,-2.69
2023-02-07T19:51:42.252Z,-2.53
2023-02-07T19:54:09.507Z,-2.47
2023-02-07T19:56:36.906Z,-2.60
2023-02-07T19:59:06.665Z,-2.66
2023-02-07T20:01:37.022Z,-2.66
2023-02-07T20:04:04.920Z,-2.49
2023-02-07T20:06:33.998Z,-2.64
2023-02-07T20:09:03.364Z,-2.58
2023-02-07T20:11:30.483Z,-2.48
2023-02-07T20:14:03.635Z,-2.40
2023-02-07T20:16:33.566Z,-2.45
2023-02-07T20:19:01.071Z,-2.45
2023-02-07T20:21:29.996Z,-2.50
2023-02-07T20:23:57.345Z,-2.50
2023-02-07T20:26:27.874Z,-2.51
2023-02-07T20:28:58.096Z,-2.55
2023-02-07T20:31:29.370Z,-2.56
2023-02-07T20:33:57.820Z,-2.67
2023-02-07T20:36:26.708Z,-2.62
2023-02-07T20:38:55.611Z,-2.51
2023-02-07T20:41:30.745Z,-2.38
2023-02-07T20:44:05.104Z,-2.67
2023-02-07T20:46:34.385Z,-2.72
2023-02-07T20:49:11.103Z,-2.78
2023-02-07T20:51:38.225Z,-2.80
2023-02-07T20:56:38.569Z,-2.65
2023-02-07T20:59:06.082Z,-2.62
2023-02-07T21:01:34.216Z,-2.53
2023-02-07T21:04:04.238Z,-2.54
2023-02-07T21:06:31.582Z,-2.49
2023-02-07T21:09:00.892Z,-2.41
2023-02-07T21:11:33.889Z,-2.51
2023-02-07T21:14:03.856Z,-2.53
2023-02-07T21:16:36.022Z,-2.66
2023-02-07T21:19:03.017Z,-2.74
2023-02-07T21:21:29.881Z,-2.88
2023-02-07T21:23:57.668Z,-2.79
2023-02-07T21:26:26.839Z,-2.93
2023-02-07T21:28:58.121Z,-2.88
2023-02-07T21:33:57.031Z,-2.77
2023-02-07T21:36:26.480Z,-2.98
2023-02-07T21:38:54.999Z,-3.00
2023-02-07T21:41:26.156Z,-2.82
2023-02-07T21:43:55.059Z,-2.81
2023-02-07T21:46:24.647Z,-2.64
2023-02-07T21:48:56.526Z,-2.65
2023-02-07T21:51:25.298Z,-2.63
2023-02-07T21:53:53.852Z,-2.67
2023-02-07T21:56:24.931Z,-2.68
2023-02-07T21:58:57.437Z,-2.78
2023-02-07T22:01:24.919Z,-2.78
2023-02-07T22:03:54.008Z,-2.78
2023-02-07T22:06:21.697Z,-2.79
2023-02-07T22:08:50.755Z,-2.85
2023-02-07T22:13:52.528Z,-2.84
2023-02-07T22:16:21.793Z,-2.81
2023-02-07T22:18:48.954Z,-2.77
2023-02-07T22:21:21.356Z,-2.92
2023-02-07T22:23:48.001Z,-2.91
2023-02-07T22:26:15.113Z,-2.77
2023-02-07T22:28:42.107Z,-2.77
2023-02-07T22:31:14.145Z,-2.87
2023-02-07T22:33:41.098Z,-2.87
2023-02-07T22:36:19.566Z,-2.76
2023-02-07T22:38:47.202Z,-2.85
2023-02-07T22:41:14.308Z,-2.76
2023-02-07T22:43:41.217Z,-2.84
2023-02-07T22:46:10.881Z,-2.72
2023-02-07T22:48:37.544Z,-2.78
2023-02-07T22:51:17.936Z,-2.92
2023-02-07T22:53:45.794Z,-2.92
2023-02-07T22:56:12.658Z,-2.82
2023-02-07T22:58:42.883Z,-2.79
2023-02-07T23:01:24.679Z,-2.86
2023-02-07T23:03:51.679Z,-3.02
2023-02-07T23:06:18.654Z,-2.87
2023-02-07T23:08:45.745Z,-3.02
2023-02-07T23:11:14.510Z,-2.91
2023-02-07T23:13:41.773Z,-2.92
2023-02-07T23:18:49.597Z,-2.85
2023-02-07T23:21:18.575Z,-2.89
2023-02-07T23:23:45.294Z,-2.88
2023-02-07T23:26:14.391Z,-2.97
2023-02-07T23:28:41.333Z,-3.13
2023-02-07T23:31:09.654Z,-3.15
2023-02-07T23:33:36.976Z,-3.17
2023-02-07T23:36:04.690Z,-3.20
2023-02-07T23:38:31.743Z,-3.07
2023-02-07T23:40:59.579Z,-3.10
2023-02-07T23:43:26.361Z,-3.25
2023-02-07T23:45:53.035Z,-3.09
2023-02-07T23:48:19.982Z,-3.31
2023-02-07T23:50:54.772Z,-3.24
2023-02-07T23:53:21.626Z,-3.28
2023-02-07T23:55:56.385Z,-3.26
2023-02-07T23:58:24.843Z,-3.24
